Time;durP1;ratioP1;P1;durP2;ratioP2;P2;SDS_P1;SDS_P2;PMS_P1;PMS_P2;Temp;Humidity;BMP_temperature;BMP_pressure;BME280_temperature;BME280_humidity;BME280_pressure;Samples;Min_cycle;Max_cycle;Signal;HPM_P1;HPM_P2
2022/11/22 00:02:01;;;;;;;20.53;18.43;;;;;;;;;;5060597;28;20263;-55
2022/11/22 00:04:26;;;;;;;23.03;20.80;;;;;;;;;;5058953;28;20177;-54
2022/11/22 00:06:51;;;;;;;22.37;20.07;;;;;;;;;;5057935;28;20171;-55
2022/11/22 00:09:16;;;;;;;21.47;19.37;;;;;;;;;;5063557;28;20184;-55
2022/11/22 00:11:41;;;;;;;23.47;21.13;;;;;;;;;;5061184;28;20176;-55
2022/11/22 00:14:06;;;;;;;23.07;20.70;;;;;;;;;;5065661;28;20190;-55
2022/11/22 00:16:33;;;;;;;22.50;20.30;;;;;;;;;;5065915;28;20231;-55
2022/11/22 00:18:58;;;;;;;22.93;20.63;;;;;;;;;;5058275;28;20230;-55
2022/11/22 00:21:23;;;;;;;22.50;20.20;;;;;;;;;;5059630;28;20602;-55
2022/11/22 00:23:48;;;;;;;21.17;19.00;;;;;;;;;;5062660;28;20177;-56
2022/11/22 00:26:14;;;;;;;20.60;18.50;;;;;;;;;;5073993;28;20654;-55
2022/11/22 00:28:39;;;;;;;22.00;19.80;;;;;;;;;;5058908;28;20182;-55
2022/11/22 00:31:04;;;;;;;22.50;20.10;;;;;;;;;;5059255;28;20214;-55
2022/11/22 00:33:29;;;;;;;20.30;18.40;;;;;;;;;;5063857;28;20173;-56
2022/11/22 00:35:54;;;;;;;22.20;20.07;;;;;;;;;;5081025;28;20178;-55
2022/11/22 00:38:20;;;;;;;23.23;20.93;;;;;;;;;;5069045;28;20163;-55
2022/11/22 00:40:45;;;;;;;20.47;18.47;;;;;;;;;;5064753;28;20203;-55
2022/11/22 00:43:10;;;;;;;22.47;20.23;;;;;;;;;;5070312;28;20175;-55
2022/11/22 00:45:35;;;;;;;20.20;18.07;;;;;;;;;;5073532;28;20206;-56
2022/11/22 00:48:00;;;;;;;20.90;18.83;;;;;;;;;;5068455;28;20169;-56
2022/11/22 00:50:25;;;;;;;19.53;17.70;;;;;;;;;;5072058;28;20187;-55
2022/11/22 00:52:51;;;;;;;23.03;17.80;;;;;;;;;;5060790;28;20184;-55
2022/11/22 00:55:16;;;;;;;20.03;18.10;;;;;;;;;;5075068;28;20712;-56
2022/11/22 00:57:41;;;;;;;20.70;18.67;;;;;;;;;;5062362;28;20184;-55
2022/11/22 01:00:07;;;;;;;20.43;18.53;;;;;;;;;;5077230;28;20203;-56
2022/11/22 01:02:32;;;;;;;21.40;17.97;;;;;;;;;;5063780;28;20185;-54
2022/11/22 01:04:57;;;;;;;19.13;17.40;;;;;;;;;;5066165;28;20672;-54
2022/11/22 01:07:22;;;;;;;19.40;17.60;;;;;;;;;;5074497;28;20217;-55
2022/11/22 01:09:47;;;;;;;20.17;17.50;;;;;;;;;;5065049;28;20180;-55
2022/11/22 01:12:12;;;;;;;19.80;18.10;;;;;;;;;;5066345;28;20231;-57
2022/11/22 01:14:37;;;;;;;20.20;18.40;;;;;;;;;;5063758;28;20179;-55
2022/11/22 01:17:03;;;;;;;19.60;17.80;;;;;;;;;;5072965;28;20259;-56
2022/11/22 01:19:28;;;;;;;18.53;16.90;;;;;;;;;;5081462;28;20261;-56
2022/11/22 01:21:53;;;;;;;20.13;18.27;;;;;;;;;;5062757;28;20350;-55
2022/11/22 01:24:18;;;;;;;18.80;16.80;;;;;;;;;;5068351;28;20179;-56
2022/11/22 01:26:43;;;;;;;18.73;17.03;;;;;;;;;;5062582;28;20183;-55
2022/11/22 01:29:09;;;;;;;21.07;18.90;;;;;;;;;;5057111;28;20179;-55
2022/11/22 01:31:34;;;;;;;20.10;18.20;;;;;;;;;;5067061;28;20184;-56
2022/11/22 01:33:59;;;;;;;20.83;18.83;;;;;;;;;;5067377;28;20186;-56
2022/11/22 01:36:25;;;;;;;20.90;19.00;;;;;;;;;;5062648;28;20175;-56
2022/11/22 01:38:50;;;;;;;18.30;16.60;;;;;;;;;;5074456;28;20183;-61
2022/11/22 01:41:15;;;;;;;21.43;19.43;;;;;;;;;;5077683;28;20216;-56
2022/11/22 01:43:40;;;;;;;19.60;17.80;;;;;;;;;;5067988;28;20172;-56
2022/11/22 01:46:08;;;;;;;20.93;18.93;;;;;;;;;;5074006;28;20207;-56
2022/11/22 01:48:45;;;;;;;21.00;19.10;;;;;;;;;;5068744;28;20183;-57
2022/11/22 01:51:19;;;;;;;22.03;20.03;;;;;;;;;;5057182;28;20597;-55
2022/11/22 01:53:45;;;;;;;22.23;20.23;;;;;;;;;;5069375;28;21346;-56
2022/11/22 01:56:13;;;;;;;21.47;19.17;;;;;;;;;;5091582;28;20664;-55
2022/11/22 01:58:40;;;;;;;21.63;19.53;;;;;;;;;;5060110;28;20175;-56
2022/11/22 02:01:05;;;;;;;21.17;19.17;;;;;;;;;;5053606;28;20638;-56
2022/11/22 02:03:31;;;;;;;21.73;19.83;;;;;;;;;;5061811;28;20599;-56
2022/11/22 02:05:57;;;;;;;20.37;18.53;;;;;;;;;;5071792;28;20596;-55
2022/11/22 02:08:36;;;;;;;21.63;19.63;;;;;;;;;;5064048;28;20788;-56
2022/11/22 02:11:02;;;;;;;21.60;19.60;;;;;;;;;;5070093;28;20173;-55
2022/11/22 02:13:28;;;;;;;21.67;19.70;;;;;;;;;;5057643;28;20721;-55
2022/11/22 02:15:53;;;;;;;22.17;20.07;;;;;;;;;;5055789;28;20679;-55
2022/11/22 02:18:18;;;;;;;21.10;19.10;;;;;;;;;;5059580;28;20668;-55
2022/11/22 02:20:44;;;;;;;20.63;18.67;;;;;;;;;;5071873;28;20646;-56
2022/11/22 02:23:22;;;;;;;21.50;19.40;;;;;;;;;;5068517;28;20175;-55
2022/11/22 02:25:54;;;;;;;21.30;19.20;;;;;;;;;;5066660;28;20225;-55
2022/11/22 02:28:19;;;;;;;21.83;19.67;;;;;;;;;;5065181;28;20633;-56
2022/11/22 02:30:45;;;;;;;23.07;20.67;;;;;;;;;;5059574;28;20650;-56
2022/11/22 02:33:10;;;;;;;21.53;19.60;;;;;;;;;;5071317;28;20179;-56
2022/11/22 02:35:35;;;;;;;20.70;18.90;;;;;;;;;;5070222;28;20178;-56
2022/11/22 02:38:02;;;;;;;21.47;19.37;;;;;;;;;;5070826;28;20179;-55
2022/11/22 02:40:30;;;;;;;21.43;19.23;;;;;;;;;;5053320;28;20706;-55
2022/11/22 02:43:00;;;;;;;22.50;20.30;;;;;;;;;;5066782;28;20590;-55
2022/11/22 02:45:25;;;;;;;21.57;19.47;;;;;;;;;;5068026;28;20631;-56
2022/11/22 02:47:51;;;;;;;21.70;19.37;;;;;;;;;;5063667;28;20636;-57
2022/11/22 02:50:16;;;;;;;22.27;20.08;;;;;;;;;;5060741;28;20172;-55
2022/11/22 02:52:41;;;;;;;22.90;20.80;;;;;;;;;;5055091;28;20172;-55
2022/11/22 02:55:06;;;;;;;23.90;21.60;;;;;;;;;;5058928;28;20198;-55
2022/11/22 02:57:32;;;;;;;22.17;20.03;;;;;;;;;;5057254;28;20724;-56
2022/11/22 02:59:57;;;;;;;23.67;21.47;;;;;;;;;;5055651;28;20204;-55
2022/11/22 03:02:22;;;;;;;23.47;21.27;;;;;;;;;;5066470;28;20168;-56
2022/11/22 03:04:47;;;;;;;22.83;20.53;;;;;;;;;;5051986;28;20172;-55
2022/11/22 03:07:12;;;;;;;24.27;21.93;;;;;;;;;;5059714;28;20178;-56
2022/11/22 03:09:37;;;;;;;24.30;21.90;;;;;;;;;;5055623;28;20678;-55
2022/11/22 03:12:03;;;;;;;23.87;21.63;;;;;;;;;;5051962;28;20201;-56
2022/11/22 03:14:28;;;;;;;24.23;21.93;;;;;;;;;;5067270;28;20661;-56
2022/11/22 03:16:53;;;;;;;24.33;22.07;;;;;;;;;;5065221;28;20182;-55
2022/11/22 03:19:18;;;;;;;22.80;20.70;;;;;;;;;;5069471;28;20220;-55
2022/11/22 03:21:44;;;;;;;23.97;21.67;;;;;;;;;;5070707;28;20212;-54
2022/11/22 03:24:09;;;;;;;22.43;20.13;;;;;;;;;;5070850;28;20160;-56
2022/11/22 03:26:34;;;;;;;22.40;20.30;;;;;;;;;;5064438;28;20191;-56
2022/11/22 03:29:00;;;;;;;24.33;21.93;;;;;;;;;;5062282;28;20256;-56
2022/11/22 03:31:25;;;;;;;23.53;20.40;;;;;;;;;;5058966;28;20675;-56
2022/11/22 03:33:51;;;;;;;22.97;20.67;;;;;;;;;;5060390;28;20258;-55
2022/11/22 03:36:16;;;;;;;23.20;20.90;;;;;;;;;;5070867;28;20168;-56
2022/11/22 03:38:41;;;;;;;23.03;20.77;;;;;;;;;;5066313;28;20179;-55
2022/11/22 03:41:06;;;;;;;22.05;19.95;;;;;;;;;;5068776;28;20219;-55
2022/11/22 03:43:32;;;;;;;22.23;19.93;;;;;;;;;;5068051;28;20226;-55
2022/11/22 03:45:57;;;;;;;21.60;19.60;;;;;;;;;;5066804;28;20172;-56
2022/11/22 03:48:22;;;;;;;24.27;21.57;;;;;;;;;;5058421;28;20176;-56
2022/11/22 03:50:47;;;;;;;23.43;21.23;;;;;;;;;;5055318;28;20172;-56
2022/11/22 03:53:12;;;;;;;22.07;20.00;;;;;;;;;;5062534;28;20198;-55
2022/11/22 03:55:38;;;;;;;23.50;21.00;;;;;;;;;;5065940;28;20483;-55
2022/11/22 03:58:03;;;;;;;23.40;21.00;;;;;;;;;;5061522;28;20266;-55
2022/11/22 04:00:28;;;;;;;22.97;20.77;;;;;;;;;;5060473;28;20237;-55
2022/11/22 04:02:54;;;;;;;22.60;20.40;;;;;;;;;;5061400;28;20183;-56
2022/11/22 04:05:19;;;;;;;24.20;21.80;;;;;;;;;;5063819;28;20169;-57
2022/11/22 04:07:44;;;;;;;21.90;19.70;;;;;;;;;;5065730;28;20190;-57
2022/11/22 04:10:09;;;;;;;23.07;20.77;;;;;;;;;;5061557;28;20209;-58
2022/11/22 04:12:34;;;;;;;22.70;20.50;;;;;;;;;;5068331;28;20577;-56
2022/11/22 04:15:05;;;;;;;23.07;20.50;;;;;;;;;;5086926;28;20191;-55
2022/11/22 04:17:40;;;;;;;23.23;21.00;;;;;;;;;;5078802;28;20205;-55
2022/11/22 04:22:57;;;;;;;20.00;18.10;;;;;;;;;;5058574;28;20658;-56
2022/11/22 04:25:22;;;;;;;20.33;18.30;;;;;;;;;;5059505;28;21205;-56
2022/11/22 04:27:48;;;;;;;20.80;18.77;;;;;;;;;;5067803;28;20589;-56
2022/11/22 04:30:13;;;;;;;21.53;19.53;;;;;;;;;;5065649;28;20184;-56
2022/11/22 04:32:44;;;;;;;20.47;18.43;;;;;;;;;;5062874;28;20693;-56
2022/11/22 04:35:09;;;;;;;19.60;17.73;;;;;;;;;;5066914;28;20177;-57
2022/11/22 04:37:34;;;;;;;18.50;16.80;;;;;;;;;;5061685;28;20609;-56
2022/11/22 04:39:59;;;;;;;20.83;18.93;;;;;;;;;;5058873;28;20218;-56
2022/11/22 04:45:09;;;;;;;19.70;17.80;;;;;;;;;;5060809;28;20227;-56
2022/11/22 04:53:01;;;;;;;20.53;18.57;;;;;;;;;;5058102;28;20582;-57
2022/11/22 04:55:27;;;;;;;20.53;18.60;;;;;;;;;;5061084;28;20606;-57
2022/11/22 04:57:52;;;;;;;20.50;18.50;;;;;;;;;;5057549;28;20296;-56
2022/11/22 05:00:17;;;;;;;19.80;18.00;;;;;;;;;;5063178;28;20336;-57
2022/11/22 05:02:42;;;;;;;20.53;18.50;;;;;;;;;;5053669;28;20169;-57
2022/11/22 05:05:08;;;;;;;20.42;18.35;;;;;;;;;;5057013;28;20171;-61
2022/11/22 05:07:33;;;;;;;22.47;20.47;;;;;;;;;;5061849;28;20641;-57
2022/11/22 05:09:58;;;;;;;21.00;18.90;;;;;;;;;;5063584;28;20181;-57
2022/11/22 05:12:23;;;;;;;19.97;18.03;;;;;;;;;;5061283;28;20525;-56
2022/11/22 05:14:48;;;;;;;21.10;19.10;;;;;;;;;;5067749;28;20212;-57
2022/11/22 05:17:14;;;;;;;20.90;18.83;;;;;;;;;;5061262;28;20191;-57
2022/11/22 05:19:39;;;;;;;20.15;18.00;;;;;;;;;;5055859;28;20210;-57
2022/11/22 05:22:04;;;;;;;21.43;19.53;;;;;;;;;;5064684;28;21062;-57
2022/11/22 05:24:29;;;;;;;20.83;18.48;;;;;;;;;;5069628;28;20177;-56
2022/11/22 05:26:54;;;;;;;20.20;18.40;;;;;;;;;;5063867;28;20181;-56
2022/11/22 05:29:19;;;;;;;22.30;19.10;;;;;;;;;;5057873;28;20196;-56
2022/11/22 05:31:45;;;;;;;20.17;18.37;;;;;;;;;;5058562;28;20596;-56
2022/11/22 05:34:10;;;;;;;18.63;16.80;;;;;;;;;;5055036;28;20609;-56
2022/11/22 05:36:35;;;;;;;19.93;18.20;;;;;;;;;;5053669;28;20222;-55
2022/11/22 05:39:00;;;;;;;21.00;19.10;;;;;;;;;;5052999;28;20635;-56
2022/11/22 05:41:26;;;;;;;20.37;18.47;;;;;;;;;;5065236;28;20185;-56
2022/11/22 05:43:53;;;;;;;21.00;18.80;;;;;;;;;;5057383;28;20262;-56
2022/11/22 05:46:22;;;;;;;18.40;16.50;;;;;;;;;;5058753;28;20176;-60
2022/11/22 05:48:47;;;;;;;20.17;18.30;;;;;;;;;;5064419;28;21153;-58
2022/11/22 05:51:14;;;;;;;19.93;18.13;;;;;;;;;;5060303;28;20612;-56
2022/11/22 05:53:39;;;;;;;20.10;18.13;;;;;;;;;;5062581;28;20200;-56
2022/11/22 05:56:05;;;;;;;21.23;19.23;;;;;;;;;;5044585;28;21505;-57
2022/11/22 05:58:30;;;;;;;19.73;17.93;;;;;;;;;;5058269;28;20227;-56
2022/11/22 06:00:55;;;;;;;20.23;18.30;;;;;;;;;;5062461;28;20196;-57
2022/11/22 06:03:21;;;;;;;19.90;17.80;;;;;;;;;;5061537;28;20645;-56
2022/11/22 06:05:49;;;;;;;20.83;19.03;;;;;;;;;;5064189;28;20172;-57
2022/11/22 06:08:15;;;;;;;19.33;17.63;;;;;;;;;;5055938;28;20212;-55
2022/11/22 06:10:40;;;;;;;19.53;17.57;;;;;;;;;;5054851;28;21232;-55
2022/11/22 06:13:05;;;;;;;21.27;19.40;;;;;;;;;;5052722;28;20200;-55
2022/11/22 06:15:30;;;;;;;20.83;18.93;;;;;;;;;;5047546;28;20272;-55
2022/11/22 06:17:55;;;;;;;19.77;17.88;;;;;;;;;;5061471;28;20219;-55
2022/11/22 06:20:20;;;;;;;19.80;18.10;;;;;;;;;;5071073;28;20196;-53
2022/11/22 06:22:45;;;;;;;20.73;18.73;;;;;;;;;;5052712;28;20658;-55
2022/11/22 06:25:11;;;;;;;20.87;18.87;;;;;;;;;;5067037;28;20173;-57
2022/11/22 06:27:36;;;;;;;21.73;19.80;;;;;;;;;;5068326;28;20193;-56
2022/11/22 06:30:01;;;;;;;20.97;19.07;;;;;;;;;;5068319;28;20184;-57
2022/11/22 06:32:26;;;;;;;18.70;17.10;;;;;;;;;;5069814;28;20630;-56
2022/11/22 06:34:51;;;;;;;20.13;18.23;;;;;;;;;;5070341;28;20172;-56
2022/11/22 06:37:17;;;;;;;21.50;19.40;;;;;;;;;;5072101;28;20176;-56
2022/11/22 06:39:42;;;;;;;19.00;17.33;;;;;;;;;;5072433;28;20188;-58
2022/11/22 06:42:07;;;;;;;21.02;19.13;;;;;;;;;;5072090;28;20176;-57
2022/11/22 06:44:33;;;;;;;19.87;17.97;;;;;;;;;;5070815;28;20196;-57
2022/11/22 06:46:58;;;;;;;19.87;18.10;;;;;;;;;;5071657;28;20165;-57
2022/11/22 06:49:23;;;;;;;19.87;18.17;;;;;;;;;;5071907;28;20177;-55
2022/11/22 06:51:48;;;;;;;20.73;18.73;;;;;;;;;;5061143;28;20184;-58
2022/11/22 06:54:14;;;;;;;19.83;17.87;;;;;;;;;;5063653;28;20238;-56
2022/11/22 06:56:39;;;;;;;19.63;17.57;;;;;;;;;;5052035;28;20264;-57
2022/11/22 06:59:05;;;;;;;19.80;18.00;;;;;;;;;;5055739;28;20677;-57
2022/11/22 07:01:31;;;;;;;20.07;18.20;;;;;;;;;;5064927;28;20175;-58
2022/11/22 07:03:57;;;;;;;20.33;18.63;;;;;;;;;;5056279;28;20584;-57
2022/11/22 07:06:23;;;;;;;21.33;19.43;;;;;;;;;;5052407;28;20253;-60
2022/11/22 07:08:48;;;;;;;20.17;18.27;;;;;;;;;;5062873;28;20598;-55
2022/11/22 07:11:18;;;;;;;20.30;18.40;;;;;;;;;;5066218;28;20615;-57
2022/11/22 07:13:43;;;;;;;21.03;18.90;;;;;;;;;;5060948;28;20265;-56
2022/11/22 07:16:10;;;;;;;21.33;19.30;;;;;;;;;;5062770;28;20606;-56
2022/11/22 07:18:35;;;;;;;20.60;18.70;;;;;;;;;;5066277;28;20235;-56
2022/11/22 07:21:01;;;;;;;20.30;18.20;;;;;;;;;;5071590;28;20627;-57
2022/11/22 07:23:26;;;;;;;19.67;17.70;;;;;;;;;;5056371;28;20177;-56
2022/11/22 07:25:52;;;;;;;21.30;19.40;;;;;;;;;;5068395;28;20596;-56
2022/11/22 07:28:17;;;;;;;20.40;18.53;;;;;;;;;;5068450;28;20177;-58
2022/11/22 07:30:42;;;;;;;20.63;18.80;;;;;;;;;;5068386;28;20199;-57
2022/11/22 07:33:08;;;;;;;23.40;21.30;;;;;;;;;;5070919;28;20174;-57
2022/11/22 07:35:33;;;;;;;21.13;19.33;;;;;;;;;;5053139;28;20260;-57
2022/11/22 07:37:58;;;;;;;21.33;19.30;;;;;;;;;;5055200;28;20183;-56
2022/11/22 07:40:24;;;;;;;22.77;20.77;;;;;;;;;;5060611;28;20213;-57
2022/11/22 07:42:49;;;;;;;19.77;17.93;;;;;;;;;;5052181;28;20601;-61
2022/11/22 07:45:14;;;;;;;21.67;19.57;;;;;;;;;;5060150;28;20177;-57
2022/11/22 07:47:39;;;;;;;19.70;17.70;;;;;;;;;;5070832;28;20207;-55
2022/11/22 07:50:05;;;;;;;22.70;20.40;;;;;;;;;;5071031;28;20176;-56
2022/11/22 07:52:30;;;;;;;22.77;20.70;;;;;;;;;;5071106;28;20720;-55
2022/11/22 07:54:55;;;;;;;20.47;18.67;;;;;;;;;;5069108;28;20169;-56
2022/11/22 07:57:20;;;;;;;21.50;19.55;;;;;;;;;;5069343;28;20533;-57
2022/11/22 07:59:45;;;;;;;20.92;19.02;;;;;;;;;;5070753;28;20234;-56
2022/11/22 08:02:11;;;;;;;21.43;19.63;;;;;;;;;;5069909;28;20240;-60
2022/11/22 08:04:36;;;;;;;22.23;20.20;;;;;;;;;;5071032;28;20172;-56
2022/11/22 08:07:01;;;;;;;20.93;19.03;;;;;;;;;;5062485;28;20178;-55
2022/11/22 08:09:26;;;;;;;22.33;20.33;;;;;;;;;;5050651;28;20590;-56
2022/11/22 08:11:51;;;;;;;24.17;21.80;;;;;;;;;;5050705;28;20223;-56
2022/11/22 08:14:16;;;;;;;20.93;18.93;;;;;;;;;;5050905;28;20182;-56
2022/11/22 08:16:42;;;;;;;23.00;20.97;;;;;;;;;;5052445;28;20189;-56
2022/11/22 08:19:07;;;;;;;21.23;19.27;;;;;;;;;;5050323;28;20331;-56
2022/11/22 08:21:32;;;;;;;20.75;18.90;;;;;;;;;;5050700;28;20540;-56
2022/11/22 08:23:58;;;;;;;22.03;19.93;;;;;;;;;;5050261;28;20826;-55
2022/11/22 08:26:23;;;;;;;21.33;19.47;;;;;;;;;;5048855;28;20579;-56
2022/11/22 08:28:49;;;;;;;22.17;20.23;;;;;;;;;;5050673;28;20190;-56
2022/11/22 08:31:15;;;;;;;22.33;20.33;;;;;;;;;;5050527;28;20245;-56
2022/11/22 08:33:40;;;;;;;21.30;19.40;;;;;;;;;;5050455;28;20178;-56
2022/11/22 08:36:06;;;;;;;22.80;20.83;;;;;;;;;;5050343;28;20675;-55
2022/11/22 08:38:31;;;;;;;22.57;20.67;;;;;;;;;;5053725;28;20205;-56
2022/11/22 08:40:56;;;;;;;21.80;19.90;;;;;;;;;;5068647;28;20734;-56
2022/11/22 08:43:22;;;;;;;22.30;20.40;;;;;;;;;;5068808;28;20539;-57
2022/11/22 08:45:47;;;;;;;21.60;19.50;;;;;;;;;;5070160;28;20263;-56
2022/11/22 08:48:13;;;;;;;23.67;21.77;;;;;;;;;;5070095;28;20206;-55
2022/11/22 08:50:38;;;;;;;21.47;19.57;;;;;;;;;;5070682;28;20575;-56
2022/11/22 08:53:03;;;;;;;23.70;21.60;;;;;;;;;;5068502;28;20226;-56
2022/11/22 08:55:28;;;;;;;24.03;22.03;;;;;;;;;;5070342;28;20192;-57
2022/11/22 08:57:57;;;;;;;22.70;20.90;;;;;;;;;;5068300;28;20254;-56
2022/11/22 09:00:22;;;;;;;22.73;20.83;;;;;;;;;;5070431;28;20583;-57
2022/11/22 09:02:47;;;;;;;23.43;21.53;;;;;;;;;;5070049;28;20571;-57
2022/11/22 09:05:12;;;;;;;22.87;21.07;;;;;;;;;;5067510;28;20266;-56
2022/11/22 09:07:37;;;;;;;23.70;21.80;;;;;;;;;;5070237;28;20178;-56
2022/11/22 09:10:04;;;;;;;24.30;22.30;;;;;;;;;;5070303;28;20625;-56
2022/11/22 09:12:29;;;;;;;24.17;22.27;;;;;;;;;;5069041;28;20720;-57
2022/11/22 09:14:54;;;;;;;23.33;21.33;;;;;;;;;;5066120;28;20751;-55
2022/11/22 09:17:20;;;;;;;23.47;21.57;;;;;;;;;;5073748;28;20195;-55
2022/11/22 09:19:46;;;;;;;21.43;19.73;;;;;;;;;;5074265;28;20238;-55
2022/11/22 09:22:11;;;;;;;22.87;21.07;;;;;;;;;;5073728;28;20657;-55
2022/11/22 09:24:36;;;;;;;20.87;19.27;;;;;;;;;;5068604;28;20160;-56
2022/11/22 09:27:01;;;;;;;21.87;20.17;;;;;;;;;;5051720;28;20193;-57
2022/11/22 09:29:26;;;;;;;20.60;18.90;;;;;;;;;;5050311;28;20550;-57
2022/11/22 09:31:51;;;;;;;21.57;19.87;;;;;;;;;;5053587;28;20619;-56
2022/11/22 09:34:17;;;;;;;20.80;19.00;;;;;;;;;;5053430;28;20182;-56
2022/11/22 09:36:42;;;;;;;20.90;19.10;;;;;;;;;;5070231;28;20639;-55
2022/11/22 09:39:07;;;;;;;19.35;17.85;;;;;;;;;;5071540;28;20176;-56
2022/11/22 09:41:44;;;;;;;21.63;19.80;;;;;;;;;;5073869;28;20173;-55
2022/11/22 09:44:12;;;;;;;20.70;18.90;;;;;;;;;;5071633;28;20224;-56
2022/11/22 09:46:56;;;;;;;22.17;20.37;;;;;;;;;;5071304;28;20603;-55
2022/11/22 09:49:25;;;;;;;20.57;18.97;;;;;;;;;;5073421;28;21144;-56
2022/11/22 09:52:12;;;;;;;20.93;19.33;;;;;;;;;;5073499;28;20600;-55
2022/11/22 09:54:42;;;;;;;19.80;17.80;;;;;;;;;;5073420;28;20946;-55
2022/11/22 09:57:11;;;;;;;20.00;18.40;;;;;;;;;;5070787;28;20612;-55
2022/11/22 09:59:39;;;;;;;22.50;20.60;;;;;;;;;;5073220;28;20639;-55
2022/11/22 10:02:11;;;;;;;18.50;17.10;;;;;;;;;;5073099;28;20561;-56
2022/11/22 10:04:41;;;;;;;19.90;18.43;;;;;;;;;;5073403;28;20573;-56
2022/11/22 10:07:12;;;;;;;18.40;17.00;;;;;;;;;;5070678;28;20691;-57
2022/11/22 10:09:52;;;;;;;19.43;17.93;;;;;;;;;;5066325;28;20601;-56
2022/11/22 10:12:23;;;;;;;19.73;17.93;;;;;;;;;;5052747;28;20633;-55
2022/11/22 10:15:01;;;;;;;19.33;17.83;;;;;;;;;;5065581;28;20626;-55
2022/11/22 10:17:29;;;;;;;19.33;17.93;;;;;;;;;;5072504;28;21161;-55
2022/11/22 10:20:06;;;;;;;19.97;18.37;;;;;;;;;;5070619;28;20671;-56
2022/11/22 10:22:33;;;;;;;19.03;17.53;;;;;;;;;;5072747;28;20593;-55
2022/11/22 10:24:59;;;;;;;19.47;17.87;;;;;;;;;;5072054;28;20577;-55
2022/11/22 10:27:27;;;;;;;21.30;19.63;;;;;;;;;;5054044;28;20605;-56
2022/11/22 10:29:56;;;;;;;20.43;18.83;;;;;;;;;;5066525;28;20605;-55
2022/11/22 10:32:29;;;;;;;18.73;17.23;;;;;;;;;;5072464;28;20594;-56
2022/11/22 10:35:03;;;;;;;18.37;16.97;;;;;;;;;;5072542;28;20603;-56
2022/11/22 10:37:37;;;;;;;18.07;16.57;;;;;;;;;;5072359;28;21140;-56
2022/11/22 10:40:21;;;;;;;18.90;17.40;;;;;;;;;;5070575;28;20665;-57
2022/11/22 10:42:53;;;;;;;18.00;16.50;;;;;;;;;;5072219;28;20994;-57
2022/11/22 10:45:22;;;;;;;18.53;17.17;;;;;;;;;;5072206;28;20596;-57
2022/11/22 10:47:48;;;;;;;17.27;15.97;;;;;;;;;;5072299;28;20572;-57
2022/11/22 10:50:13;;;;;;;18.10;16.70;;;;;;;;;;5070263;28;20600;-55
2022/11/22 10:52:44;;;;;;;16.88;15.65;;;;;;;;;;5072297;28;20245;-56
2022/11/22 10:55:18;;;;;;;18.00;16.60;;;;;;;;;;5071995;28;20203;-56
2022/11/22 10:57:58;;;;;;;16.80;15.50;;;;;;;;;;5072173;28;20579;-57
2022/11/22 11:00:24;;;;;;;18.00;16.60;;;;;;;;;;5070295;28;20829;-55
2022/11/22 11:02:49;;;;;;;18.20;16.57;;;;;;;;;;5071898;28;20676;-56
2022/11/22 11:05:19;;;;;;;18.58;17.08;;;;;;;;;;5071950;28;20669;-56
2022/11/22 11:07:48;;;;;;;19.00;17.50;;;;;;;;;;5071493;28;20529;-56
2022/11/22 11:10:25;;;;;;;20.17;18.47;;;;;;;;;;5070319;28;20629;-54
2022/11/22 11:12:55;;;;;;;18.67;17.20;;;;;;;;;;5071716;28;20607;-56
2022/11/22 11:15:22;;;;;;;20.10;18.60;;;;;;;;;;5071642;28;20595;-56
2022/11/22 11:17:50;;;;;;;20.00;18.30;;;;;;;;;;5071383;28;20655;-56
2022/11/22 11:20:21;;;;;;;22.00;20.20;;;;;;;;;;5071442;28;20641;-55
2022/11/22 11:22:46;;;;;;;22.10;20.30;;;;;;;;;;5052513;28;20621;-56
2022/11/22 11:25:47;;;;;;;19.80;18.30;;;;;;;;;;5051364;28;20586;-56
2022/11/22 11:28:17;;;;;;;21.80;19.90;;;;;;;;;;5049010;28;20185;-56
2022/11/22 11:30:44;;;;;;;22.23;20.63;;;;;;;;;;5051181;28;20620;-56
2022/11/22 11:33:22;;;;;;;22.37;20.67;;;;;;;;;;5051026;28;21035;-56
2022/11/22 11:35:49;;;;;;;22.60;20.60;;;;;;;;;;5050527;28;20651;-55
2022/11/22 11:38:27;;;;;;;23.67;21.77;;;;;;;;;;5050870;28;20690;-55
2022/11/22 11:40:53;;;;;;;23.80;22.00;;;;;;;;;;5051100;28;21063;-55
2022/11/22 11:43:19;;;;;;;23.80;21.93;;;;;;;;;;5051117;28;20572;-57
2022/11/22 11:45:44;;;;;;;24.70;22.80;;;;;;;;;;5051218;28;20295;-57
2022/11/22 11:48:24;;;;;;;26.30;23.87;;;;;;;;;;5050522;28;20610;-56
2022/11/22 11:50:49;;;;;;;23.50;21.63;;;;;;;;;;5051043;28;20188;-56
2022/11/22 11:53:19;;;;;;;23.37;21.57;;;;;;;;;;5050999;28;20635;-56
2022/11/22 11:55:44;;;;;;;24.13;22.23;;;;;;;;;;5051123;28;20252;-57
2022/11/22 11:58:19;;;;;;;25.17;23.23;;;;;;;;;;5052269;28;20715;-57
2022/11/22 12:00:45;;;;;;;23.87;22.00;;;;;;;;;;5070978;28;20296;-57
2022/11/22 12:03:13;;;;;;;25.23;23.20;;;;;;;;;;5070626;28;20577;-57
2022/11/22 12:05:38;;;;;;;24.47;22.30;;;;;;;;;;5071224;28;20182;-56
2022/11/22 12:08:23;;;;;;;24.03;22.03;;;;;;;;;;5070470;28;20576;-56
2022/11/22 12:10:54;;;;;;;26.03;23.83;;;;;;;;;;5070649;28;20216;-55
2022/11/22 12:13:19;;;;;;;24.13;22.13;;;;;;;;;;5070629;28;20706;-55
2022/11/22 12:15:57;;;;;;;25.83;23.52;;;;;;;;;;5070887;28;20683;-56
2022/11/22 12:18:35;;;;;;;23.13;21.10;;;;;;;;;;5070160;28;20294;-55
2022/11/22 12:21:19;;;;;;;26.30;24.20;;;;;;;;;;5070220;28;20647;-56
2022/11/22 12:24:01;;;;;;;23.97;21.80;;;;;;;;;;5070850;28;20603;-55
2022/11/22 12:26:28;;;;;;;25.13;23.03;;;;;;;;;;5070492;28;20622;-56
2022/11/22 12:28:54;;;;;;;23.73;21.90;;;;;;;;;;5070400;28;21148;-57
2022/11/22 12:31:30;;;;;;;24.87;22.77;;;;;;;;;;5068800;28;20776;-56
2022/11/22 12:34:06;;;;;;;25.40;23.30;;;;;;;;;;5070352;28;20181;-56
2022/11/22 12:36:37;;;;;;;24.67;22.70;;;;;;;;;;5070610;28;20614;-56
2022/11/22 12:39:03;;;;;;;23.80;21.90;;;;;;;;;;5068700;28;20926;-56
2022/11/22 12:41:29;;;;;;;25.07;22.43;;;;;;;;;;5054122;28;20657;-56
2022/11/22 12:43:56;;;;;;;25.27;23.00;;;;;;;;;;5050474;28;20227;-56
2022/11/22 12:46:36;;;;;;;24.50;22.50;;;;;;;;;;5050059;28;20180;-55
2022/11/22 12:49:04;;;;;;;23.57;21.37;;;;;;;;;;5054047;28;20630;-55
2022/11/22 12:51:32;;;;;;;24.90;22.90;;;;;;;;;;5054400;28;20591;-55
2022/11/22 12:53:59;;;;;;;24.87;22.77;;;;;;;;;;5054413;28;20597;-57
2022/11/22 12:56:26;;;;;;;23.77;21.67;;;;;;;;;;5054216;28;21213;-55
2022/11/22 12:59:05;;;;;;;24.33;22.43;;;;;;;;;;5054222;28;20666;-56
2022/11/22 13:01:38;;;;;;;25.53;23.33;;;;;;;;;;5054155;28;20737;-57
2022/11/22 13:04:09;;;;;;;24.70;22.60;;;;;;;;;;5054374;28;20572;-56
2022/11/22 13:06:46;;;;;;;25.37;23.37;;;;;;;;;;5053944;28;20667;-56
2022/11/22 13:09:13;;;;;;;24.00;21.70;;;;;;;;;;5054096;28;20597;-57
2022/11/22 13:11:44;;;;;;;26.23;23.93;;;;;;;;;;5054133;28;20579;-57
2022/11/22 13:14:14;;;;;;;22.57;20.53;;;;;;;;;;5054060;28;20604;-56
2022/11/22 13:16:39;;;;;;;27.60;25.27;;;;;;;;;;5055857;28;20668;-56
2022/11/22 13:19:05;;;;;;;26.60;24.30;;;;;;;;;;5066352;28;20639;-55
2022/11/22 13:21:54;;;;;;;27.80;22.23;;;;;;;;;;5053771;28;20305;-56
2022/11/22 13:24:31;;;;;;;26.47;24.27;;;;;;;;;;5053640;28;20580;-55
2022/11/22 13:27:11;;;;;;;21.93;20.03;;;;;;;;;;5055145;28;20593;-55
2022/11/22 13:29:38;;;;;;;23.80;21.90;;;;;;;;;;5073580;28;21195;-56
2022/11/22 13:32:15;;;;;;;24.57;22.27;;;;;;;;;;5073716;28;20574;-56
2022/11/22 13:34:42;;;;;;;24.20;21.87;;;;;;;;;;5074059;28;20586;-56
2022/11/22 13:37:12;;;;;;;22.87;20.77;;;;;;;;;;5073637;28;20578;-56
2022/11/22 13:39:47;;;;;;;24.03;21.93;;;;;;;;;;5072063;28;20646;-57
2022/11/22 13:42:25;;;;;;;22.80;20.70;;;;;;;;;;5071323;28;20599;-55
2022/11/22 13:45:05;;;;;;;22.80;20.60;;;;;;;;;;5073421;28;20581;-56
2022/11/22 13:47:34;;;;;;;21.03;19.13;;;;;;;;;;5073292;28;20614;-56
2022/11/22 13:50:00;;;;;;;22.17;20.10;;;;;;;;;;5071637;28;20696;-55
2022/11/22 13:52:25;;;;;;;23.70;21.77;;;;;;;;;;5072941;28;21673;-56
2022/11/22 13:54:55;;;;;;;21.50;19.65;;;;;;;;;;5073386;28;20201;-55
2022/11/22 13:57:32;;;;;;;21.37;19.57;;;;;;;;;;5073052;28;20263;-55
2022/11/22 14:00:10;;;;;;;23.23;21.03;;;;;;;;;;5070344;28;20647;-56
2022/11/22 14:02:35;;;;;;;22.27;20.47;;;;;;;;;;5073014;28;20675;-55
2022/11/22 14:05:00;;;;;;;23.83;21.90;;;;;;;;;;5073343;28;20680;-56
2022/11/22 14:07:31;;;;;;;22.10;20.10;;;;;;;;;;5072962;28;20171;-55
2022/11/22 14:09:58;;;;;;;23.57;21.57;;;;;;;;;;5070786;28;20175;-56
2022/11/22 14:12:32;;;;;;;24.23;22.13;;;;;;;;;;5072926;28;21143;-55
2022/11/22 14:15:16;;;;;;;23.73;21.83;;;;;;;;;;5073024;28;20642;-55
2022/11/22 14:17:41;;;;;;;23.10;21.00;;;;;;;;;;5072971;28;20632;-56
2022/11/22 14:20:20;;;;;;;23.90;22.00;;;;;;;;;;5063948;28;20633;-56
2022/11/22 14:22:59;;;;;;;26.23;24.10;;;;;;;;;;5053049;28;20186;-56
2022/11/22 14:25:44;;;;;;;24.80;22.30;;;;;;;;;;5052758;28;20572;-55
2022/11/22 14:28:28;;;;;;;23.03;21.13;;;;;;;;;;5052559;28;20578;-56
2022/11/22 14:30:55;;;;;;;23.53;21.40;;;;;;;;;;5063624;28;21175;-56